GB-0176 weather

Jackrells Farm
horsham, England, United Kingdom

Public forecast

Using degrees Celsius for public forecast. Weather courtesy of forecast.io.

METAR (pilot weather report)

Closest report is London Gatwick Airport, 8.7 nm (16.2 km) NE. Retrieved 2019/03/27 00:20 UTC (15 minutes ago):

EGKK 270020Z 25003KT 9999 BKN042 04/02 Q1033

TAF (pilot weather forecast)

Forecast is more than 12 hours old.

Closest forecast is London Gatwick Airport, 8.7 nm (16.2 km) NE. Retrieved 2019/03/26 00:00 UTC (1 day ago):

TAF EGKK 262301Z 2700/2806 32004KT 9999 SCT045 PROB30 2701/2708 8000 PROB30 2802/2806 4000 BR